Glens Falls, New York
Current Conditions -  °F | °C
As of 10:53 AM on Friday 21 Nov 2014 (Local Time) from KGFL Reporting Station
Overcast Overcast  
Wind Chill: -5°   Ceiling: 4600
Heat Index: -1°   Visibility: 10mi
Dew Point: -11°   Wind: 10mph
Humidity: 47%   Direction: 300°WNW
Pressure: 30.19"   Gusts: NA
Location:  43.31°N, 73.64°W
Report Text: KGFL 211553Z AUTO 30009KT 10SM OVC046 M01/M11 A3019 RMK AO2 SLP233 T10061106
Loading
Personal Weather Stations






























Interactive Weather Map New forecast layout! Learn more

10-Day Weather Forecast

Advertisements
Track Severe Weather on mobile